KHYS/HYS METAR and TAF weather

Enter ICAO airport designator
Station Type Date Time Source
KHYS METAR 2022/11/30 16:56 UTC NOAA

KHYS 301656Z AUTO 00000KT 10SM CLR M03/M10 A3042 RMK AO2 SLP331 T10281100 FZRANO $


Station Type Date Time Source
KHYS Decoded METAR 2022/11/30 16:56 UTC NOAA

Hays, Hays Regional Airport, KS, United States (KHYS) 38-51N 099-16W
Nov 30, 2022 - 11:56 AM EST / 2022.11.30 1656 UTC
Wind: Calm:0
Visibility: 10 mile(s):0
Sky conditions: clear
Temperature: 27.0 F (-2.8 C)
Dew Point: 14.0 F (-10.0 C)
Relative Humidity: 57%
Pressure (altimeter): 30.42 in. Hg (1030 hPa)
ob: KHYS 301656Z AUTO 00000KT 10SM CLR M03/M10 A3042 RMK AO2 SLP331 T10281100 FZRANO
cycle: 17

Station Type Date Time Source
KHYS TAF 2022/11/30 12:33 UTC NOAA

TAF KHYS 301130Z 3012/0112 32006KT P6SM SKC
FM010300 19017KT P6SM BKN200

Example: see airport list